createdAt,value
2023-06-04T00:01:38.127Z,1.13
2023-06-04T00:05:01.199Z,0.90
2023-06-04T00:08:25.274Z,0.80
2023-06-04T00:11:48.597Z,1.30
2023-06-04T00:15:11.803Z,0.80
2023-06-04T00:18:34.555Z,0.75
2023-06-04T00:21:57.820Z,1.25
2023-06-04T00:25:22.144Z,1.10
2023-06-04T00:28:44.858Z,1.20
2023-06-04T00:32:08.468Z,1.10
2023-06-04T00:35:31.496Z,1.05
2023-06-04T00:38:54.654Z,0.82
2023-06-04T00:42:18.656Z,0.80
2023-06-04T00:45:41.225Z,1.00
2023-06-04T00:49:03.944Z,1.05
2023-06-04T00:52:27.313Z,1.10
2023-06-04T00:55:50.064Z,0.88
2023-06-04T00:59:14.869Z,0.75
2023-06-04T01:02:41.038Z,0.80
2023-06-04T01:06:16.043Z,0.90
2023-06-04T01:09:39.266Z,0.98
2023-06-04T01:13:02.164Z,0.75
2023-06-04T01:16:30.356Z,1.00
2023-06-04T01:20:19.517Z,1.38
2023-06-04T01:23:50.905Z,1.10
2023-06-04T01:27:17.311Z,1.38
2023-06-04T01:30:44.647Z,1.30
2023-06-04T01:34:11.009Z,1.33
2023-06-04T01:37:33.561Z,1.10
2023-06-04T01:40:58.978Z,1.23
2023-06-04T01:44:21.632Z,1.25
2023-06-04T01:47:44.452Z,1.20
2023-06-04T01:51:09.089Z,1.42
2023-06-04T01:54:34.398Z,1.30
2023-06-04T01:57:57.573Z,1.23
2023-06-04T02:01:21.266Z,1.33
2023-06-04T02:04:44.198Z,1.48
2023-06-04T02:08:10.633Z,1.20
2023-06-04T02:11:33.189Z,1.83
2023-06-04T02:14:56.150Z,1.23
2023-06-04T02:18:22.703Z,1.67
2023-06-04T02:21:45.443Z,1.17
2023-06-04T02:25:11.676Z,2.03
2023-06-04T02:28:34.325Z,1.75
2023-06-04T02:31:57.017Z,1.48
2023-06-04T02:35:20.663Z,1.65
2023-06-04T02:38:43.205Z,1.38
2023-06-04T02:42:08.107Z,1.38
2023-06-04T02:45:31.066Z,1.52
2023-06-04T02:48:54.442Z,1.60
2023-06-04T02:52:17.494Z,1.00
2023-06-04T02:55:40.555Z,1.42
2023-06-04T02:59:05.158Z,1.25
2023-06-04T03:02:28.335Z,1.33
2023-06-04T03:05:51.892Z,1.23
2023-06-04T03:09:15.367Z,1.50
2023-06-04T03:12:38.733Z,1.45
2023-06-04T03:16:04.232Z,1.20
2023-06-04T03:19:27.315Z,1.58
2023-06-04T03:22:49.959Z,1.88
2023-06-04T03:26:14.248Z,1.63
2023-06-04T03:29:37.618Z,1.20
2023-06-04T03:33:02.041Z,1.70
2023-06-04T03:36:33.077Z,2.00
2023-06-04T03:39:55.923Z,2.00
2023-06-04T03:43:18.782Z,2.17
2023-06-04T03:46:41.661Z,1.52
2023-06-04T03:50:06.529Z,1.50
2023-06-04T03:53:29.502Z,1.70
2023-06-04T03:56:52.165Z,1.65
2023-06-04T04:00:16.331Z,1.55
2023-06-04T04:03:39.797Z,1.95
2023-06-04T04:07:04.200Z,2.00
2023-06-04T04:10:27.468Z,2.13
2023-06-04T04:13:51.133Z,1.95
2023-06-04T04:17:14.634Z,1.63
2023-06-04T04:20:37.064Z,1.52
2023-06-04T04:24:01.453Z,1.83
2023-06-04T04:27:24.298Z,2.15
2023-06-04T04:30:47.079Z,1.42
2023-06-04T04:34:10.622Z,2.00
2023-06-04T04:37:33.583Z,2.22
2023-06-04T04:40:58.995Z,1.60
2023-06-04T04:44:22.881Z,1.73
2023-06-04T04:47:46.059Z,1.70
2023-06-04T04:51:09.128Z,1.75
2023-06-04T04:54:31.957Z,1.70
2023-06-04T04:57:56.350Z,2.15
2023-06-04T05:01:19.319Z,1.58
2023-06-04T05:04:42.133Z,1.67
2023-06-04T05:08:05.121Z,1.60
2023-06-04T05:11:27.872Z,2.17
2023-06-04T05:14:51.983Z,1.90
2023-06-04T05:18:15.024Z,1.23
2023-06-04T05:21:38.287Z,1.52
2023-06-04T05:25:01.972Z,1.38
2023-06-04T05:28:26.676Z,1.38
2023-06-04T05:31:51.302Z,1.73
2023-06-04T05:35:14.325Z,1.63
2023-06-04T05:38:37.278Z,2.00
2023-06-04T05:41:59.928Z,3.67
2023-06-04T05:45:22.788Z,4.13
2023-06-04T05:48:46.970Z,2.63
2023-06-04T05:52:09.936Z,2.45
2023-06-04T05:55:33.140Z,5.72
2023-06-04T05:58:56.256Z,4.45
2023-06-04T06:02:19.227Z,2.53
2023-06-04T06:05:43.708Z,2.22
2023-06-04T06:09:06.256Z,1.63
2023-06-04T06:12:29.321Z,1.33
2023-06-04T06:15:54.337Z,1.40
2023-06-04T06:19:18.722Z,1.10
2023-06-04T06:22:42.807Z,1.55
2023-06-04T06:26:09.554Z,2.13
2023-06-04T06:29:32.303Z,1.80
2023-06-04T06:32:56.623Z,1.80
2023-06-04T06:36:20.324Z,1.42
2023-06-04T06:39:44.362Z,1.70
2023-06-04T06:43:07.317Z,1.67
2023-06-04T06:46:30.326Z,1.70
2023-06-04T06:49:53.349Z,1.60
2023-06-04T06:53:16.299Z,1.48
2023-06-04T06:56:40.791Z,1.73
2023-06-04T07:00:04.140Z,2.10
2023-06-04T07:03:26.915Z,1.23
2023-06-04T07:06:49.665Z,2.00
2023-06-04T07:10:13.337Z,2.65
2023-06-04T07:13:37.324Z,2.25
2023-06-04T07:17:00.234Z,2.25
2023-06-04T07:20:22.933Z,1.95
2023-06-04T07:23:47.029Z,1.92
2023-06-04T07:27:14.487Z,2.42
2023-06-04T07:30:39.074Z,1.60
2023-06-04T07:34:01.825Z,1.88
2023-06-04T07:37:24.692Z,2.28
2023-06-04T07:40:49.216Z,2.13
2023-06-04T07:44:12.143Z,2.10
2023-06-04T07:47:36.352Z,2.10
2023-06-04T07:51:00.013Z,1.80
2023-06-04T07:54:24.177Z,1.88
2023-06-04T07:57:47.370Z,2.50
2023-06-04T08:01:10.719Z,2.28
2023-06-04T08:04:35.235Z,1.90
2023-06-04T08:07:58.143Z,1.75
2023-06-04T08:11:20.932Z,2.10
2023-06-04T08:14:44.416Z,2.13
2023-06-04T08:18:08.349Z,2.13
2023-06-04T08:21:33.184Z,4.63
2023-06-04T08:24:57.181Z,3.70
2023-06-04T08:28:22.792Z,2.70
2023-06-04T08:31:45.597Z,2.40
2023-06-04T08:35:10.105Z,2.47
2023-06-04T08:38:34.550Z,1.90
2023-06-04T08:42:03.387Z,1.48
2023-06-04T08:45:27.011Z,1.45
2023-06-04T08:48:51.086Z,2.55
2023-06-04T08:52:14.575Z,2.33
2023-06-04T08:55:39.052Z,5.10
2023-06-04T08:59:04.452Z,3.38
2023-06-04T09:02:31.134Z,2.58
2023-06-04T09:05:55.307Z,2.10
2023-06-04T09:09:19.719Z,2.80
2023-06-04T09:12:46.442Z,3.92
2023-06-04T09:16:09.474Z,1.75
2023-06-04T09:19:32.548Z,1.45
2023-06-04T09:22:55.320Z,1.15
2023-06-04T09:26:18.283Z,1.33
2023-06-04T09:29:42.868Z,1.70
2023-06-04T09:33:10.434Z,2.17
2023-06-04T09:36:33.950Z,1.60
2023-06-04T09:39:57.908Z,1.40
2023-06-04T09:43:27.202Z,1.30
2023-06-04T09:50:29.501Z,1.85
2023-06-04T09:54:00.082Z,1.83
2023-06-04T09:57:24.121Z,1.40
2023-06-04T10:00:48.516Z,1.30
2023-06-04T10:04:16.286Z,1.42
2023-06-04T10:07:41.706Z,4.18
2023-06-04T10:11:07.408Z,2.25
2023-06-04T10:14:38.165Z,3.20
2023-06-04T10:18:01.244Z,3.47
2023-06-04T10:21:26.436Z,4.28
2023-06-04T10:24:49.091Z,3.63
2023-06-04T10:28:11.947Z,5.28
2023-06-04T10:31:35.310Z,2.30
2023-06-04T10:34:58.994Z,2.05
2023-06-04T10:38:23.814Z,1.55
2023-06-04T10:41:47.264Z,1.65
2023-06-04T10:45:13.504Z,1.30
2023-06-04T10:48:35.946Z,1.55
2023-06-04T10:52:04.627Z,1.33
2023-06-04T10:55:28.736Z,1.08
2023-06-04T10:58:51.695Z,1.10
2023-06-04T11:02:14.746Z,0.98
2023-06-04T11:05:38.929Z,1.00
2023-06-04T11:09:06.877Z,1.23
2023-06-04T11:12:30.696Z,0.75
2023-06-04T11:15:53.249Z,0.90
2023-06-04T11:19:15.778Z,0.68
2023-06-04T11:22:38.429Z,0.90
2023-06-04T11:26:01.288Z,0.90
2023-06-04T11:29:25.885Z,0.90
2023-06-04T11:32:49.487Z,0.77
2023-06-04T11:36:11.933Z,0.88
2023-06-04T11:39:40.396Z,0.80
2023-06-04T11:43:03.245Z,0.50
2023-06-04T11:46:27.745Z,0.98
2023-06-04T11:49:50.907Z,0.68
2023-06-04T11:53:13.764Z,0.60
2023-06-04T11:56:36.723Z,0.50
2023-06-04T11:59:59.788Z,0.80
2023-06-04T12:03:36.784Z,0.43
2023-06-04T12:07:01.782Z,0.80
2023-06-04T12:10:25.766Z,0.52
2023-06-04T12:13:48.821Z,0.63
2023-06-04T12:17:12.265Z,0.80
2023-06-04T12:20:41.699Z,0.90
2023-06-04T12:24:12.847Z,0.80
2023-06-04T12:27:36.220Z,0.77
2023-06-04T12:30:59.218Z,1.13
2023-06-04T12:34:22.107Z,0.90
2023-06-04T12:37:46.629Z,0.80
2023-06-04T12:41:09.795Z,0.55
2023-06-04T12:44:34.716Z,3.72
2023-06-04T12:47:59.043Z,1.48
2023-06-04T12:51:22.248Z,0.90
2023-06-04T12:54:47.278Z,2.70
2023-06-04T12:58:10.096Z,1.02
2023-06-04T13:01:33.255Z,0.50
2023-06-04T13:04:57.567Z,1.30
2023-06-04T13:08:20.649Z,0.90
2023-06-04T13:11:46.242Z,0.50
2023-06-04T13:15:10.245Z,1.00
2023-06-04T13:18:33.401Z,2.03
2023-06-04T13:21:56.154Z,1.30
2023-06-04T13:25:19.518Z,1.55
2023-06-04T13:28:44.011Z,0.73
2023-06-04T13:32:07.387Z,0.45
2023-06-04T13:35:30.442Z,0.90
2023-06-04T13:38:56.268Z,2.05
2023-06-04T13:42:19.022Z,5.30
2023-06-04T13:45:46.085Z,6.40
2023-06-04T13:49:08.931Z,2.10
2023-06-04T13:52:31.380Z,1.70
2023-06-04T13:55:59.522Z,0.68
2023-06-04T13:59:22.254Z,0.90
2023-06-04T14:02:46.563Z,1.00
2023-06-04T14:06:11.356Z,1.00
2023-06-04T14:09:37.539Z,1.50
2023-06-04T14:13:00.301Z,0.70
2023-06-04T14:16:23.171Z,0.70
2023-06-04T14:19:47.235Z,0.70
2023-06-04T14:23:10.246Z,0.60
2023-06-04T14:26:33.158Z,0.82
2023-06-04T14:29:56.382Z,0.90
2023-06-04T14:33:19.079Z,1.75
2023-06-04T14:36:43.871Z,0.88
2023-06-04T14:40:07.754Z,6.65
2023-06-04T14:43:30.610Z,5.40
2023-06-04T14:46:54.458Z,1.35
2023-06-04T14:50:17.245Z,0.60
2023-06-04T14:53:41.847Z,0.70
2023-06-04T14:57:05.001Z,0.85
2023-06-04T15:00:27.858Z,1.08
2023-06-04T15:03:50.774Z,5.43
2023-06-04T15:07:13.268Z,9.90
2023-06-04T15:10:37.651Z,0.77
2023-06-04T15:14:00.309Z,0.98
2023-06-04T15:17:23.785Z,0.35
2023-06-04T15:20:46.834Z,0.40
2023-06-04T15:24:10.954Z,0.80
2023-06-04T15:27:35.535Z,0.50
2023-06-04T15:30:58.583Z,1.98
2023-06-04T15:34:21.535Z,1.42
2023-06-04T15:37:44.496Z,0.90
2023-06-04T15:41:07.320Z,0.50
2023-06-04T15:44:32.257Z,0.90
2023-06-04T15:47:55.530Z,2.13
2023-06-04T15:51:18.277Z,2.28
2023-06-04T15:54:46.327Z,1.55
2023-06-04T15:58:10.139Z,0.80
2023-06-04T16:01:34.682Z,0.70
2023-06-04T16:04:58.404Z,0.68
2023-06-04T16:08:21.774Z,0.68
2023-06-04T16:11:44.528Z,0.90
2023-06-04T16:15:08.646Z,1.20
2023-06-04T16:18:33.648Z,0.93
2023-06-04T16:21:56.584Z,0.80
2023-06-04T16:25:19.856Z,0.60
2023-06-04T16:28:44.652Z,0.40
2023-06-04T16:32:07.912Z,0.50
2023-06-04T16:35:33.428Z,0.40
2023-06-04T16:38:56.392Z,0.38
2023-06-04T16:42:19.246Z,0.45
2023-06-04T16:45:42.817Z,0.60
2023-06-04T16:49:05.654Z,0.47
2023-06-04T16:52:30.168Z,1.00
2023-06-04T16:55:52.819Z,0.52
2023-06-04T16:59:15.479Z,0.60
2023-06-04T17:02:38.491Z,0.95
2023-06-04T17:06:01.596Z,0.77
2023-06-04T17:09:25.669Z,1.13
2023-06-04T17:12:48.752Z,1.20
2023-06-04T17:16:11.829Z,1.30
2023-06-04T17:19:34.670Z,0.57
2023-06-04T17:22:57.672Z,0.50
2023-06-04T17:26:23.639Z,0.63
2023-06-04T17:29:46.910Z,0.70
2023-06-04T17:33:11.574Z,0.50
2023-06-04T17:36:34.569Z,0.50
2023-06-04T17:39:57.348Z,0.50
2023-06-04T17:43:21.612Z,0.80
2023-06-04T17:46:44.603Z,1.08
2023-06-04T17:50:09.882Z,0.85
2023-06-04T17:53:32.744Z,0.68
2023-06-04T17:56:56.103Z,0.40
2023-06-04T18:00:21.724Z,0.45
2023-06-04T18:03:44.841Z,0.55
2023-06-04T18:07:07.647Z,0.50
2023-06-04T18:10:30.500Z,0.43
2023-06-04T18:13:53.262Z,0.60
2023-06-04T18:17:17.849Z,0.50
2023-06-04T18:20:42.554Z,0.57
2023-06-04T18:24:05.851Z,0.77
2023-06-04T18:27:29.087Z,0.80
2023-06-04T18:30:52.146Z,0.40
2023-06-04T18:34:21.789Z,0.45
2023-06-04T18:37:45.124Z,0.20
2023-06-04T18:41:10.751Z,0.25
2023-06-04T18:44:33.621Z,0.50
2023-06-04T18:47:56.551Z,0.40
2023-06-04T18:51:20.657Z,0.43
2023-06-04T18:54:46.286Z,0.50
2023-06-04T18:58:10.459Z,1.08
2023-06-04T19:01:33.683Z,0.80
2023-06-04T19:04:56.782Z,0.70
2023-06-04T19:08:21.688Z,0.70
2023-06-04T19:11:45.272Z,0.98
2023-06-04T19:15:09.764Z,0.70
2023-06-04T19:18:33.429Z,0.60
2023-06-04T19:21:56.298Z,0.70
2023-06-04T19:25:20.920Z,1.05
2023-06-04T19:28:43.941Z,0.45
2023-06-04T19:32:07.833Z,0.85
2023-06-04T19:35:30.683Z,0.40
2023-06-04T19:38:53.642Z,0.50
2023-06-04T19:43:27.274Z,0.68
2023-06-04T19:46:51.881Z,0.30
2023-06-04T19:50:15.830Z,0.38
2023-06-04T19:53:39.507Z,0.60
2023-06-04T19:57:02.665Z,0.50
2023-06-04T20:00:26.149Z,0.52
2023-06-04T20:03:50.752Z,0.38
2023-06-04T20:07:14.421Z,0.20
2023-06-04T20:10:37.267Z,0.40
2023-06-04T20:14:00.241Z,0.20
2023-06-04T20:17:23.626Z,0.20
2023-06-04T20:20:53.731Z,0.30
2023-06-04T20:24:18.108Z,0.20
2023-06-04T20:27:42.814Z,0.40
2023-06-04T20:31:05.807Z,0.30
2023-06-04T20:34:28.936Z,0.20
2023-06-04T20:37:55.475Z,0.45
2023-06-04T20:41:18.240Z,0.13
2023-06-04T20:44:41.700Z,0.40
2023-06-04T20:48:04.657Z,0.20
2023-06-04T20:51:27.578Z,0.25
2023-06-04T20:54:51.810Z,0.20
2023-06-04T20:58:15.588Z,1.48
2023-06-04T21:01:38.316Z,0.30
2023-06-04T21:05:01.516Z,0.20
2023-06-04T21:08:26.524Z,0.50
2023-06-04T21:11:50.705Z,0.30
2023-06-04T21:15:13.696Z,0.32
2023-06-04T21:18:36.618Z,0.45
2023-06-04T21:21:59.272Z,0.40
2023-06-04T21:25:22.230Z,0.30
2023-06-04T21:28:46.433Z,0.30
2023-06-04T21:32:09.622Z,0.35
2023-06-04T21:35:32.539Z,0.10
2023-06-04T21:38:55.190Z,0.32
2023-06-04T21:42:17.842Z,0.30
2023-06-04T21:45:42.635Z,0.28
2023-06-04T21:49:05.398Z,0.20
2023-06-04T21:52:28.267Z,0.22
2023-06-04T21:55:50.900Z,0.40
2023-06-04T21:59:13.859Z,0.30
2023-06-04T22:02:38.226Z,1.00
2023-06-04T22:06:00.902Z,0.90
2023-06-04T22:09:23.857Z,2.10
2023-06-04T22:12:46.920Z,1.50
2023-06-04T22:16:09.921Z,0.93
2023-06-04T22:19:34.500Z,0.40
2023-06-04T22:22:57.344Z,0.30
2023-06-04T22:29:45.829Z,0.30
2023-06-04T22:33:08.304Z,0.30
2023-06-04T22:36:32.351Z,0.20
2023-06-04T22:39:55.707Z,0.80
2023-06-04T22:43:18.368Z,1.10
2023-06-04T22:46:41.053Z,1.40
2023-06-04T22:50:03.676Z,1.10
2023-06-04T22:53:28.467Z,0.95
2023-06-04T22:56:51.015Z,1.40
2023-06-04T23:00:15.113Z,1.05
2023-06-04T23:03:37.753Z,0.90
2023-06-04T23:07:00.708Z,0.50
2023-06-04T23:10:25.209Z,0.47
2023-06-04T23:13:48.376Z,0.47
2023-06-04T23:17:11.235Z,0.80
2023-06-04T23:20:34.403Z,0.77
2023-06-04T23:23:57.307Z,1.60
2023-06-04T23:27:21.325Z,2.00
2023-06-04T23:30:43.678Z,1.27
2023-06-04T23:34:06.685Z,1.55
2023-06-04T23:37:29.821Z,1.50
2023-06-04T23:40:52.652Z,0.65
2023-06-04T23:44:18.364Z,0.20
2023-06-04T23:47:41.367Z,0.40
2023-06-04T23:51:04.493Z,0.50
2023-06-04T23:54:27.774Z,0.40
2023-06-04T23:57:50.614Z,0.38
